createdAt,value
2018-03-30T00:00:26.615Z,999.98
2018-03-30T00:01:26.639Z,999.94
2018-03-30T00:02:26.665Z,999.93
2018-03-30T00:03:26.693Z,999.93
2018-03-30T00:04:26.720Z,999.92
2018-03-30T00:05:26.744Z,999.97
2018-03-30T00:06:26.772Z,999.96
2018-03-30T00:07:26.798Z,999.93
2018-03-30T00:08:26.847Z,999.92
2018-03-30T00:09:26.851Z,999.94
2018-03-30T00:10:26.878Z,999.90
2018-03-30T00:11:26.904Z,999.87
2018-03-30T00:12:26.931Z,999.90
2018-03-30T00:13:26.972Z,999.82
2018-03-30T00:14:27.016Z,999.86
2018-03-30T00:15:27.027Z,999.86
2018-03-30T00:16:27.055Z,999.83
2018-03-30T00:17:27.075Z,999.86
2018-03-30T00:18:27.091Z,999.85
2018-03-30T00:19:27.135Z,999.82
2018-03-30T00:20:27.164Z,999.84
2018-03-30T00:21:27.169Z,999.89
2018-03-30T00:22:27.200Z,999.79
2018-03-30T00:23:27.222Z,999.82
2018-03-30T00:24:27.250Z,999.80
2018-03-30T00:25:27.277Z,999.80
2018-03-30T00:26:27.305Z,999.76
2018-03-30T00:27:27.329Z,999.79
2018-03-30T00:28:27.379Z,999.79
2018-03-30T00:29:27.403Z,999.83
2018-03-30T00:30:27.408Z,999.80
2018-03-30T00:31:27.434Z,999.80
2018-03-30T00:32:27.461Z,999.80
2018-03-30T00:33:27.540Z,999.81
2018-03-30T00:34:27.519Z,999.82
2018-03-30T00:35:27.550Z,999.77
2018-03-30T00:36:27.579Z,999.76
2018-03-30T00:37:27.595Z,999.73
2018-03-30T00:38:27.621Z,999.73
2018-03-30T00:39:27.647Z,999.70
2018-03-30T00:40:27.674Z,999.70
2018-03-30T00:41:27.699Z,999.71
2018-03-30T00:42:27.726Z,999.70
2018-03-30T00:43:27.752Z,999.68
2018-03-30T00:44:27.779Z,999.69
2018-03-30T00:45:27.809Z,999.65
2018-03-30T00:46:27.832Z,999.69
2018-03-30T00:47:27.862Z,999.67
2018-03-30T00:48:27.889Z,999.67
2018-03-30T00:49:27.912Z,999.67
2018-03-30T00:50:27.938Z,999.62
2018-03-30T00:51:27.965Z,999.65
2018-03-30T00:52:27.992Z,999.63
2018-03-30T00:53:28.017Z,999.64
2018-03-30T00:54:28.073Z,999.64
2018-03-30T00:55:28.072Z,999.64
2018-03-30T00:56:28.098Z,999.65
2018-03-30T00:57:28.123Z,999.64
2018-03-30T00:58:28.150Z,999.61
2018-03-30T00:59:28.211Z,999.66
2018-03-30T01:00:28.209Z,999.68
2018-03-30T01:01:28.230Z,999.62
2018-03-30T01:02:28.256Z,999.65
2018-03-30T01:03:28.284Z,999.64
2018-03-30T01:04:28.309Z,999.61
2018-03-30T01:05:28.336Z,999.58
2018-03-30T01:06:28.362Z,999.59
2018-03-30T01:07:28.391Z,999.63
2018-03-30T01:08:28.415Z,999.65
2018-03-30T01:09:28.441Z,999.61
2018-03-30T01:10:28.481Z,999.61
2018-03-30T01:11:28.495Z,999.60
2018-03-30T01:12:28.522Z,999.58
2018-03-30T01:13:28.548Z,999.59
2018-03-30T01:14:28.574Z,999.55
2018-03-30T01:15:28.620Z,999.59
2018-03-30T01:16:28.628Z,999.60
2018-03-30T01:17:28.653Z,999.59
2018-03-30T01:18:28.680Z,999.62
2018-03-30T01:19:28.707Z,999.64
2018-03-30T01:20:28.734Z,999.62
2018-03-30T01:21:28.760Z,999.65
2018-03-30T01:22:28.787Z,999.65
2018-03-30T01:23:28.829Z,999.69
2018-03-30T01:24:28.840Z,999.66
2018-03-30T01:25:28.865Z,999.61
2018-03-30T01:26:28.893Z,999.61
2018-03-30T01:27:28.920Z,999.64
2018-03-30T01:28:28.946Z,999.59
2018-03-30T01:29:28.972Z,999.67
2018-03-30T01:30:28.998Z,999.66
2018-03-30T01:31:29.026Z,999.64
2018-03-30T01:32:29.066Z,999.71
2018-03-30T01:33:29.077Z,999.73
2018-03-30T01:34:29.105Z,999.71
2018-03-30T01:35:29.132Z,999.69
2018-03-30T01:36:29.205Z,999.74
2018-03-30T01:37:29.185Z,999.73
2018-03-30T01:38:29.210Z,999.69
2018-03-30T01:39:29.237Z,999.68
2018-03-30T01:40:29.266Z,999.69
2018-03-30T01:41:29.290Z,999.65
2018-03-30T01:42:29.317Z,999.66
2018-03-30T01:43:29.343Z,999.63
2018-03-30T01:44:29.369Z,999.65
2018-03-30T01:45:29.395Z,999.63
2018-03-30T01:46:29.423Z,999.63
2018-03-30T01:47:29.449Z,999.63
2018-03-30T01:48:29.476Z,999.63
2018-03-30T01:49:29.502Z,999.63
2018-03-30T01:50:29.529Z,999.65
2018-03-30T01:51:29.561Z,999.65
2018-03-30T01:52:29.582Z,999.65
2018-03-30T01:53:29.608Z,999.64
2018-03-30T01:54:29.635Z,999.66
2018-03-30T01:55:29.661Z,999.63
2018-03-30T01:56:29.688Z,999.62
2018-03-30T01:57:29.714Z,999.63
2018-03-30T01:58:29.742Z,999.62
2018-03-30T01:59:29.771Z,999.62
2018-03-30T02:00:29.794Z,999.61
2018-03-30T02:01:29.820Z,999.61
2018-03-30T02:02:29.847Z,999.64
2018-03-30T02:03:29.874Z,999.61
2018-03-30T02:04:29.903Z,999.61
2018-03-30T02:05:29.926Z,999.62
2018-03-30T02:06:29.954Z,999.61
2018-03-30T02:07:29.980Z,999.64
2018-03-30T02:08:30.007Z,999.65
2018-03-30T02:09:30.035Z,999.61
2018-03-30T02:10:30.059Z,999.62
2018-03-30T02:11:30.091Z,999.64
2018-03-30T02:12:30.113Z,999.59
2018-03-30T02:13:30.138Z,999.58
2018-03-30T02:14:30.165Z,999.58
2018-03-30T02:15:30.192Z,999.54
2018-03-30T02:16:30.218Z,999.54
2018-03-30T02:17:30.245Z,999.55
2018-03-30T02:18:30.273Z,999.54
2018-03-30T02:19:30.334Z,999.56
2018-03-30T02:20:30.325Z,999.53
2018-03-30T02:21:30.350Z,999.51
2018-03-30T02:22:30.405Z,999.51
2018-03-30T02:23:30.405Z,999.49
2018-03-30T02:24:30.431Z,999.44
2018-03-30T02:25:30.456Z,999.47
2018-03-30T02:26:30.483Z,999.46
2018-03-30T02:27:30.510Z,999.49
2018-03-30T02:28:30.550Z,999.45
2018-03-30T02:29:30.594Z,999.44
2018-03-30T02:30:30.591Z,999.42
2018-03-30T02:31:30.618Z,999.45
2018-03-30T02:32:30.643Z,999.42
2018-03-30T02:33:30.673Z,999.43
2018-03-30T02:34:30.697Z,999.40
2018-03-30T02:35:30.723Z,999.38
2018-03-30T02:36:30.750Z,999.41
2018-03-30T02:37:30.776Z,999.39
2018-03-30T02:38:30.804Z,999.41
2018-03-30T02:39:30.832Z,999.39
2018-03-30T02:40:30.861Z,999.32
2018-03-30T02:41:30.881Z,999.30
2018-03-30T02:42:30.909Z,999.32
2018-03-30T02:43:30.936Z,999.30
2018-03-30T02:44:30.962Z,999.35
2018-03-30T02:45:30.989Z,999.36
2018-03-30T02:46:31.016Z,999.37
2018-03-30T02:47:31.042Z,999.35
2018-03-30T02:48:31.069Z,999.36
2018-03-30T02:49:31.136Z,999.33
2018-03-30T02:50:31.121Z,999.28
2018-03-30T02:51:31.148Z,999.32
2018-03-30T02:52:31.176Z,999.28
2018-03-30T02:53:31.202Z,999.29
2018-03-30T02:54:31.227Z,999.31
2018-03-30T02:55:31.255Z,999.31
2018-03-30T02:56:31.282Z,999.26
2018-03-30T02:57:31.340Z,999.27
2018-03-30T02:58:31.335Z,999.23
2018-03-30T02:59:31.362Z,999.27
2018-03-30T03:00:31.390Z,999.23
2018-03-30T03:01:31.414Z,999.24
2018-03-30T03:02:31.446Z,999.27
2018-03-30T03:03:31.471Z,999.25
2018-03-30T03:04:31.494Z,999.25
2018-03-30T03:05:31.520Z,999.25
2018-03-30T03:06:31.547Z,999.26
2018-03-30T03:07:31.579Z,999.23
2018-03-30T03:08:31.637Z,999.22
2018-03-30T03:09:31.627Z,999.19
2018-03-30T03:10:31.653Z,999.19
2018-03-30T03:11:31.686Z,999.21
2018-03-30T03:12:31.711Z,999.19
2018-03-30T03:13:31.734Z,999.19
2018-03-30T03:14:31.759Z,999.16
2018-03-30T03:15:31.787Z,999.16
2018-03-30T03:16:31.815Z,999.20
2018-03-30T03:17:31.840Z,999.20
2018-03-30T03:18:31.866Z,999.18
2018-03-30T03:19:31.894Z,999.15
2018-03-30T03:20:31.924Z,999.16
2018-03-30T03:21:31.946Z,999.15
2018-03-30T03:22:31.974Z,999.17
2018-03-30T03:23:32.001Z,999.19
2018-03-30T03:24:32.028Z,999.18
2018-03-30T03:25:32.053Z,999.18
2018-03-30T03:26:32.080Z,999.15
2018-03-30T03:27:32.107Z,999.15
2018-03-30T03:28:32.134Z,999.14
2018-03-30T03:29:32.160Z,999.15
2018-03-30T03:30:32.188Z,999.15
2018-03-30T03:31:32.215Z,999.19
2018-03-30T03:32:32.240Z,999.17
2018-03-30T03:33:32.266Z,999.19
2018-03-30T03:34:32.297Z,999.14
2018-03-30T03:35:32.320Z,999.17
2018-03-30T03:36:32.346Z,999.19
2018-03-30T03:37:32.372Z,999.20
2018-03-30T03:38:32.400Z,999.18
2018-03-30T03:39:32.427Z,999.18
2018-03-30T03:40:32.454Z,999.20
2018-03-30T03:41:32.480Z,999.24
2018-03-30T03:42:32.506Z,999.23
2018-03-30T03:43:32.538Z,999.22
2018-03-30T03:44:32.560Z,999.20
2018-03-30T03:45:32.591Z,999.18
2018-03-30T03:46:32.617Z,999.16
2018-03-30T03:47:32.640Z,999.16
2018-03-30T03:48:32.666Z,999.19
2018-03-30T03:49:32.692Z,999.16
2018-03-30T03:50:32.719Z,999.16
2018-03-30T03:51:32.746Z,999.14
2018-03-30T03:52:32.773Z,999.13
2018-03-30T03:53:32.799Z,999.12
2018-03-30T03:54:32.829Z,999.10
2018-03-30T03:55:32.853Z,999.12
2018-03-30T03:56:32.880Z,999.13
2018-03-30T03:57:32.933Z,999.11
2018-03-30T03:58:32.957Z,999.14
2018-03-30T03:59:32.960Z,999.15
2018-03-30T04:00:32.986Z,999.17
2018-03-30T04:01:33.013Z,999.19
2018-03-30T04:02:33.040Z,999.17
2018-03-30T04:03:33.091Z,999.16
2018-03-30T04:04:33.094Z,999.19
2018-03-30T04:05:33.150Z,999.19
2018-03-30T04:06:33.146Z,999.20
2018-03-30T04:07:33.176Z,999.17
2018-03-30T04:08:33.203Z,999.19
2018-03-30T04:09:33.225Z,999.17
2018-03-30T04:10:33.252Z,999.16
2018-03-30T04:11:33.279Z,999.18
2018-03-30T04:12:33.349Z,999.19
2018-03-30T04:13:34.178Z,999.17
2018-03-30T04:14:33.358Z,999.19
2018-03-30T04:15:33.386Z,999.14
2018-03-30T04:16:33.412Z,999.18
2018-03-30T04:17:33.440Z,999.18
2018-03-30T04:18:33.467Z,999.17
2018-03-30T04:19:33.502Z,999.21
2018-03-30T04:20:33.520Z,999.17
2018-03-30T04:21:33.546Z,999.16
2018-03-30T04:22:33.572Z,999.18
2018-03-30T04:23:33.627Z,999.19
2018-03-30T04:24:33.626Z,999.16
2018-03-30T04:25:33.652Z,999.20
2018-03-30T04:26:33.680Z,999.16
2018-03-30T04:27:33.706Z,999.21
2018-03-30T04:28:33.733Z,999.18
2018-03-30T04:29:33.759Z,999.17
2018-03-30T04:30:33.786Z,999.17
2018-03-30T04:31:33.813Z,999.18
2018-03-30T04:32:33.839Z,999.19
2018-03-30T04:33:33.867Z,999.23
2018-03-30T04:34:33.893Z,999.17
2018-03-30T04:35:33.920Z,999.16
2018-03-30T04:36:34.006Z,999.15
2018-03-30T04:37:33.973Z,999.16
2018-03-30T04:38:34.000Z,999.14
2018-03-30T04:39:34.026Z,999.13
2018-03-30T04:40:34.056Z,999.12
2018-03-30T04:41:34.079Z,999.14
2018-03-30T04:42:34.108Z,999.15
2018-03-30T04:43:34.133Z,999.09
2018-03-30T04:44:34.213Z,999.14
2018-03-30T04:45:34.198Z,999.13
2018-03-30T04:46:34.212Z,999.13
2018-03-30T04:47:34.240Z,999.11
2018-03-30T04:48:34.267Z,999.11
2018-03-30T04:49:34.293Z,999.13
2018-03-30T04:50:34.320Z,999.11
2018-03-30T04:51:34.346Z,999.17
2018-03-30T04:52:34.373Z,999.14
2018-03-30T04:53:34.422Z,999.19
2018-03-30T04:54:34.428Z,999.17
2018-03-30T04:55:34.454Z,999.22
2018-03-30T04:56:34.480Z,999.18
2018-03-30T04:57:34.506Z,999.23
2018-03-30T04:58:34.538Z,999.21
2018-03-30T04:59:34.560Z,999.18
2018-03-30T05:00:34.629Z,999.18
2018-03-30T05:01:34.613Z,999.19
2018-03-30T05:02:34.640Z,999.19
2018-03-30T05:03:34.667Z,999.21
2018-03-30T05:04:34.694Z,999.22
2018-03-30T05:05:34.720Z,999.21
2018-03-30T05:06:34.747Z,999.17
2018-03-30T05:07:34.774Z,999.17
2018-03-30T05:08:34.817Z,999.21
2018-03-30T05:09:34.827Z,999.20
2018-03-30T05:10:34.853Z,999.20
2018-03-30T05:11:34.880Z,999.22
2018-03-30T05:12:34.908Z,999.24
2018-03-30T05:13:34.934Z,999.23
2018-03-30T05:14:34.960Z,999.30
2018-03-30T05:15:34.988Z,999.29
2018-03-30T05:16:35.027Z,999.32
2018-03-30T05:17:35.041Z,999.35
2018-03-30T05:18:35.078Z,999.32
2018-03-30T05:19:35.098Z,999.38
2018-03-30T05:20:35.122Z,999.36
2018-03-30T05:21:35.148Z,999.34
2018-03-30T05:22:35.175Z,999.37
2018-03-30T05:23:35.202Z,999.43
2018-03-30T05:24:35.229Z,999.45
2018-03-30T05:25:35.255Z,999.46
2018-03-30T05:26:35.285Z,999.44
2018-03-30T05:27:35.308Z,999.42
2018-03-30T05:28:35.335Z,999.47
2018-03-30T05:29:35.362Z,999.48
2018-03-30T05:30:35.389Z,999.44
2018-03-30T05:31:35.449Z,999.42
2018-03-30T05:32:35.442Z,999.41
2018-03-30T05:33:35.469Z,999.44
2018-03-30T05:34:35.501Z,999.45
2018-03-30T05:35:35.523Z,999.43
2018-03-30T05:36:35.550Z,999.43
2018-03-30T05:37:35.576Z,999.42
2018-03-30T05:38:35.603Z,999.43
2018-03-30T05:39:35.630Z,999.47
2018-03-30T05:40:35.657Z,999.49
2018-03-30T05:41:35.683Z,999.52
2018-03-30T05:42:35.713Z,999.52
2018-03-30T05:43:35.738Z,999.50
2018-03-30T05:44:35.764Z,999.52
2018-03-30T05:45:35.791Z,999.53
2018-03-30T05:46:35.817Z,999.52
2018-03-30T05:47:35.844Z,999.50
2018-03-30T05:48:35.878Z,999.54
2018-03-30T05:49:35.897Z,999.54
2018-03-30T05:50:35.925Z,999.53
2018-03-30T05:51:35.952Z,999.57
2018-03-30T05:52:35.984Z,999.53
2018-03-30T05:53:36.004Z,999.53
2018-03-30T05:54:36.070Z,999.51
2018-03-30T05:55:36.087Z,999.53
2018-03-30T05:56:36.088Z,999.55
2018-03-30T05:57:36.128Z,999.57
2018-03-30T05:58:36.157Z,999.54
2018-03-30T05:59:36.166Z,999.56
2018-03-30T06:00:36.194Z,999.57
2018-03-30T06:01:36.220Z,999.58
2018-03-30T06:02:36.246Z,999.59
2018-03-30T06:03:36.273Z,999.59
2018-03-30T06:04:36.300Z,999.57
2018-03-30T06:05:36.326Z,999.55
2018-03-30T06:06:36.400Z,999.51
2018-03-30T06:07:36.381Z,999.54
2018-03-30T06:08:36.407Z,999.55
2018-03-30T06:09:36.451Z,999.57
2018-03-30T06:10:36.461Z,999.56
2018-03-30T06:11:36.488Z,999.57
2018-03-30T06:12:36.515Z,999.58
2018-03-30T06:13:36.542Z,999.59
2018-03-30T06:14:36.568Z,999.56
2018-03-30T06:15:36.596Z,999.60
2018-03-30T06:16:36.622Z,999.61
2018-03-30T06:17:36.649Z,999.59
2018-03-30T06:18:36.675Z,999.61
2018-03-30T06:19:36.702Z,999.58
2018-03-30T06:20:36.766Z,999.61
2018-03-30T06:21:36.756Z,999.57
2018-03-30T06:22:36.783Z,999.59
2018-03-30T06:23:36.810Z,999.60
2018-03-30T06:24:36.838Z,999.63
2018-03-30T06:25:36.863Z,999.58
2018-03-30T06:26:36.915Z,999.60
2018-03-30T06:27:36.918Z,999.59
2018-03-30T06:28:36.946Z,999.61
2018-03-30T06:29:36.972Z,999.61
2018-03-30T06:30:37.027Z,999.63
2018-03-30T06:31:37.025Z,999.62
2018-03-30T06:32:37.053Z,999.61
2018-03-30T06:33:37.083Z,999.63
2018-03-30T06:34:37.108Z,999.61
2018-03-30T06:35:37.159Z,999.61
2018-03-30T06:36:37.161Z,999.61
2018-03-30T06:37:37.186Z,999.58
2018-03-30T06:38:37.214Z,999.59
2018-03-30T06:39:37.240Z,999.59
2018-03-30T06:40:37.273Z,999.58
2018-03-30T06:41:37.294Z,999.57
2018-03-30T06:42:37.322Z,999.62
2018-03-30T06:43:37.390Z,999.63
2018-03-30T06:44:37.375Z,999.64
2018-03-30T06:45:37.401Z,999.61
2018-03-30T06:46:37.428Z,999.65
2018-03-30T06:47:37.492Z,999.65
2018-03-30T06:48:37.483Z,999.65
2018-03-30T06:49:37.538Z,999.66
2018-03-30T06:50:37.537Z,999.66
2018-03-30T06:51:37.564Z,999.64
2018-03-30T06:52:37.592Z,999.67
2018-03-30T06:53:37.618Z,999.62
2018-03-30T06:54:37.645Z,999.61
2018-03-30T06:55:37.672Z,999.61
2018-03-30T06:56:37.699Z,999.59
2018-03-30T06:57:37.725Z,999.53
2018-03-30T06:58:37.774Z,999.56
2018-03-30T06:59:37.780Z,999.52
2018-03-30T07:00:37.807Z,999.56
2018-03-30T07:01:37.833Z,999.54
2018-03-30T07:02:37.860Z,999.55
2018-03-30T07:03:37.887Z,999.55
2018-03-30T07:04:37.915Z,999.55
2018-03-30T07:05:37.940Z,999.55
2018-03-30T07:06:37.968Z,999.58
2018-03-30T07:07:37.995Z,999.59
2018-03-30T07:08:38.029Z,999.57
2018-03-30T07:09:38.048Z,999.55
2018-03-30T07:10:38.075Z,999.58
2018-03-30T07:11:38.102Z,999.57
2018-03-30T07:12:38.130Z,999.59
2018-03-30T07:13:38.160Z,999.58
2018-03-30T07:14:38.184Z,999.59
2018-03-30T07:15:38.210Z,999.61
2018-03-30T07:16:38.238Z,999.60
2018-03-30T07:17:38.263Z,999.59
2018-03-30T07:18:38.292Z,999.58
2018-03-30T07:19:38.318Z,999.58
2018-03-30T07:20:38.345Z,999.58
2018-03-30T07:21:38.371Z,999.56
2018-03-30T07:22:38.399Z,999.52
2018-03-30T07:23:38.425Z,999.54
2018-03-30T07:24:38.453Z,999.51
2018-03-30T07:25:38.486Z,999.51
2018-03-30T07:26:38.506Z,999.53
2018-03-30T07:27:38.534Z,999.53
2018-03-30T07:28:38.579Z,999.52
2018-03-30T07:29:38.587Z,999.51
2018-03-30T07:30:38.654Z,999.55
2018-03-30T07:31:38.641Z,999.57
2018-03-30T07:32:38.734Z,999.56
2018-03-30T07:33:38.694Z,999.55
2018-03-30T07:34:38.723Z,999.53
2018-03-30T07:35:38.752Z,999.51
2018-03-30T07:36:38.776Z,999.56
2018-03-30T07:37:38.801Z,999.57
2018-03-30T07:38:38.830Z,999.56
2018-03-30T07:39:38.856Z,999.56
2018-03-30T07:40:38.884Z,999.55
2018-03-30T07:41:38.910Z,999.55
2018-03-30T07:42:38.937Z,999.57
2018-03-30T07:43:38.964Z,999.57
2018-03-30T07:44:38.991Z,999.56
2018-03-30T07:45:39.017Z,999.60
2018-03-30T07:46:39.045Z,999.59
2018-03-30T07:47:39.075Z,999.60
2018-03-30T07:48:39.098Z,999.59
2018-03-30T07:49:39.124Z,999.60
2018-03-30T07:50:39.152Z,999.59
2018-03-30T07:51:39.179Z,999.62
2018-03-30T07:52:39.206Z,999.61
2018-03-30T07:53:39.232Z,999.61
2018-03-30T07:54:39.258Z,999.64
2018-03-30T07:55:39.286Z,999.63
2018-03-30T07:56:39.317Z,999.64
2018-03-30T07:57:39.385Z,999.63
2018-03-30T07:58:39.367Z,999.62
2018-03-30T07:59:39.394Z,999.63
2018-03-30T08:00:39.421Z,999.66
2018-03-30T08:01:39.446Z,999.62
2018-03-30T08:02:39.474Z,999.64
2018-03-30T08:03:39.502Z,999.65
2018-03-30T08:04:39.530Z,999.66
2018-03-30T08:05:39.555Z,999.65
2018-03-30T08:06:39.582Z,999.67
2018-03-30T08:07:39.610Z,999.70
2018-03-30T08:08:39.637Z,999.71
2018-03-30T08:09:39.663Z,999.72
2018-03-30T08:10:39.716Z,999.69
2018-03-30T08:11:39.720Z,999.71
2018-03-30T08:12:39.744Z,999.71
2018-03-30T08:13:39.771Z,999.72
2018-03-30T08:14:39.798Z,999.72
2018-03-30T08:15:39.825Z,999.69
2018-03-30T08:16:39.852Z,999.68
2018-03-30T08:17:39.878Z,999.67
2018-03-30T08:18:39.906Z,999.70
2018-03-30T08:19:39.932Z,999.66
2018-03-30T08:20:39.962Z,999.64
2018-03-30T08:21:40.022Z,999.62
2018-03-30T08:22:40.013Z,999.63
2018-03-30T08:23:40.043Z,999.65
2018-03-30T08:24:40.067Z,999.62
2018-03-30T08:25:40.093Z,999.65
2018-03-30T08:26:40.120Z,999.62
2018-03-30T08:27:40.148Z,999.64
2018-03-30T08:28:40.177Z,999.66
2018-03-30T08:29:40.201Z,999.68
2018-03-30T08:30:40.256Z,999.67
2018-03-30T08:31:40.321Z,999.64
2018-03-30T08:32:40.283Z,999.71
2018-03-30T08:33:40.312Z,999.67
2018-03-30T08:34:40.336Z,999.67
2018-03-30T08:35:40.363Z,999.68
2018-03-30T08:36:40.393Z,999.66
2018-03-30T08:37:40.421Z,999.67
2018-03-30T08:38:40.444Z,999.69
2018-03-30T08:39:40.470Z,999.73
2018-03-30T08:40:40.498Z,999.71
2018-03-30T08:41:40.568Z,999.73
2018-03-30T08:42:40.551Z,999.75
2018-03-30T08:43:40.578Z,999.76
2018-03-30T08:44:40.605Z,999.80
2018-03-30T08:45:40.649Z,999.78
2018-03-30T08:46:40.659Z,999.74
2018-03-30T08:47:40.687Z,999.73
2018-03-30T08:48:40.713Z,999.73
2018-03-30T08:49:40.738Z,999.70
2018-03-30T08:50:40.766Z,999.70
2018-03-30T08:51:40.796Z,999.68
2018-03-30T08:52:40.820Z,999.68
2018-03-30T08:53:40.846Z,999.72
2018-03-30T08:54:40.874Z,999.68
2018-03-30T08:55:40.905Z,999.67
2018-03-30T08:56:40.928Z,999.64
2018-03-30T08:57:40.954Z,999.65
2018-03-30T08:58:40.981Z,999.64
2018-03-30T08:59:41.009Z,999.64
2018-03-30T09:00:41.036Z,999.65
2018-03-30T09:01:41.070Z,999.65
2018-03-30T09:02:41.089Z,999.62
2018-03-30T09:03:41.121Z,999.66
2018-03-30T09:04:41.144Z,999.68
2018-03-30T09:05:41.169Z,999.65
2018-03-30T09:06:41.203Z,999.61
2018-03-30T09:07:41.223Z,999.61
2018-03-30T09:08:41.251Z,999.64
2018-03-30T09:09:41.280Z,999.63
2018-03-30T09:10:41.305Z,999.62
2018-03-30T09:11:41.332Z,999.63
2018-03-30T09:12:41.358Z,999.63
2018-03-30T09:13:41.385Z,999.66
2018-03-30T09:14:41.412Z,999.62
2018-03-30T09:15:41.439Z,999.65
2018-03-30T09:16:41.467Z,999.65
2018-03-30T09:17:41.493Z,999.64
2018-03-30T09:18:41.520Z,999.65
2018-03-30T09:19:41.547Z,999.67
2018-03-30T09:20:41.575Z,999.66
2018-03-30T09:21:41.605Z,999.63
2018-03-30T09:22:41.661Z,999.64
2018-03-30T09:23:41.655Z,999.64
2018-03-30T09:24:41.696Z,999.61
2018-03-30T09:25:41.748Z,999.61
2018-03-30T09:26:41.735Z,999.65
2018-03-30T09:27:41.762Z,999.62
2018-03-30T09:28:41.839Z,999.63
2018-03-30T09:29:41.815Z,999.61
2018-03-30T09:30:41.844Z,999.65
2018-03-30T09:31:41.871Z,999.63
2018-03-30T09:32:41.898Z,999.62
2018-03-30T09:33:41.924Z,999.62
2018-03-30T09:34:41.951Z,999.62
2018-03-30T09:35:41.982Z,999.63
2018-03-30T09:36:42.005Z,999.61
2018-03-30T09:37:42.032Z,999.61
2018-03-30T09:38:42.059Z,999.64
2018-03-30T09:39:42.086Z,999.62
2018-03-30T09:40:42.113Z,999.63
2018-03-30T09:41:42.139Z,999.61
2018-03-30T09:42:42.167Z,999.63
2018-03-30T09:43:42.238Z,999.60
2018-03-30T09:44:42.221Z,999.59
2018-03-30T09:45:42.247Z,999.54
2018-03-30T09:46:42.275Z,999.59
2018-03-30T09:47:42.308Z,999.54
2018-03-30T09:48:42.329Z,999.56
2018-03-30T09:49:42.355Z,999.54
2018-03-30T09:50:42.382Z,999.55
2018-03-30T09:51:42.409Z,999.55
2018-03-30T09:52:42.437Z,999.56
2018-03-30T09:53:42.463Z,999.57
2018-03-30T09:54:42.523Z,999.52
2018-03-30T09:55:42.517Z,999.56
2018-03-30T09:56:42.544Z,999.52
2018-03-30T09:57:42.581Z,999.51
2018-03-30T09:58:42.598Z,999.49
2018-03-30T09:59:42.625Z,999.48
2018-03-30T10:00:42.652Z,999.49
2018-03-30T10:01:42.679Z,999.46
2018-03-30T10:02:42.706Z,999.45
2018-03-30T10:03:42.733Z,999.48
2018-03-30T10:04:42.760Z,999.51
2018-03-30T10:05:42.810Z,999.53
2018-03-30T10:06:42.814Z,999.50
2018-03-30T10:07:42.842Z,999.48
2018-03-30T10:08:42.867Z,999.50
2018-03-30T10:09:42.895Z,999.50
2018-03-30T10:10:42.921Z,999.48
2018-03-30T10:11:42.952Z,999.48
2018-03-30T10:12:42.976Z,999.53
2018-03-30T10:13:43.002Z,999.46
2018-03-30T10:14:43.050Z,999.49
2018-03-30T10:15:43.056Z,999.54
2018-03-30T10:16:43.084Z,999.50
2018-03-30T10:17:43.110Z,999.48
2018-03-30T10:18:43.137Z,999.50
2018-03-30T10:19:43.165Z,999.48
2018-03-30T10:20:43.195Z,999.50
2018-03-30T10:21:43.218Z,999.46
2018-03-30T10:22:43.245Z,999.47
2018-03-30T10:23:43.272Z,999.43
2018-03-30T10:24:43.299Z,999.44
2018-03-30T10:25:43.326Z,999.45
2018-03-30T10:26:43.404Z,999.41
2018-03-30T10:27:43.380Z,999.43
2018-03-30T10:28:43.408Z,999.44
2018-03-30T10:29:43.434Z,999.40
2018-03-30T10:30:43.461Z,999.39
2018-03-30T10:31:43.488Z,999.43
2018-03-30T10:32:43.515Z,999.40
2018-03-30T10:33:43.541Z,999.38
2018-03-30T10:34:43.581Z,999.39
2018-03-30T10:35:43.596Z,999.38
2018-03-30T10:36:43.623Z,999.35
2018-03-30T10:37:43.650Z,999.39
2018-03-30T10:38:43.678Z,999.39
2018-03-30T10:39:43.704Z,999.37
2018-03-30T10:40:43.733Z,999.36
2018-03-30T10:41:43.758Z,999.37
2018-03-30T10:42:43.784Z,999.39
2018-03-30T10:43:43.811Z,999.34
2018-03-30T10:44:43.839Z,999.35
2018-03-30T10:45:43.868Z,999.37
2018-03-30T10:46:43.893Z,999.37
2018-03-30T10:47:43.950Z,999.39
2018-03-30T10:48:43.958Z,999.33
2018-03-30T10:49:43.973Z,999.30
2018-03-30T10:50:44.021Z,999.31
2018-03-30T10:51:44.034Z,999.32
2018-03-30T10:52:44.056Z,999.34
2018-03-30T10:53:44.081Z,999.31
2018-03-30T10:54:44.114Z,999.33
2018-03-30T10:55:44.135Z,999.31
2018-03-30T10:56:44.162Z,999.26
2018-03-30T10:57:44.189Z,999.24
2018-03-30T10:58:44.235Z,999.26
2018-03-30T10:59:44.278Z,999.29
2018-03-30T11:00:44.270Z,999.27
2018-03-30T11:01:44.338Z,999.28
2018-03-30T11:02:44.328Z,999.25
2018-03-30T11:03:44.351Z,999.27
2018-03-30T11:04:44.378Z,999.26
2018-03-30T11:05:44.405Z,999.26
2018-03-30T11:06:44.431Z,999.27
2018-03-30T11:07:44.458Z,999.26
2018-03-30T11:08:44.507Z,999.27
2018-03-30T11:09:44.512Z,999.22
2018-03-30T11:10:44.539Z,999.26
2018-03-30T11:11:44.566Z,999.21
2018-03-30T11:12:44.593Z,999.21
2018-03-30T11:13:44.620Z,999.21
2018-03-30T11:14:44.647Z,999.23
2018-03-30T11:15:44.712Z,999.19
2018-03-30T11:16:44.704Z,999.18
2018-03-30T11:17:44.727Z,999.15
2018-03-30T11:18:44.755Z,999.12
2018-03-30T11:19:44.782Z,999.15
2018-03-30T11:20:44.835Z,999.14
2018-03-30T11:21:44.835Z,999.13
2018-03-30T11:22:44.867Z,999.15
2018-03-30T11:23:44.890Z,999.18
2018-03-30T11:24:44.918Z,999.10
2018-03-30T11:25:44.944Z,999.11
2018-03-30T11:26:44.973Z,999.10
2018-03-30T11:27:44.998Z,999.09
2018-03-30T11:28:45.026Z,999.07
2018-03-30T11:29:45.051Z,999.07
2018-03-30T11:30:45.082Z,999.04
2018-03-30T11:31:45.108Z,999.06
2018-03-30T11:32:45.134Z,999.05
2018-03-30T11:33:45.159Z,999.07
2018-03-30T11:34:45.186Z,999.03
2018-03-30T11:35:45.219Z,998.99
2018-03-30T11:36:45.243Z,998.98
2018-03-30T11:37:45.268Z,998.97
2018-03-30T11:38:45.294Z,999.00
2018-03-30T11:39:45.353Z,998.94
2018-03-30T11:40:45.348Z,998.96
2018-03-30T11:41:45.374Z,998.92
2018-03-30T11:42:45.402Z,998.93
2018-03-30T11:43:45.429Z,998.96
2018-03-30T11:44:45.479Z,998.92
2018-03-30T11:45:45.483Z,998.90
2018-03-30T11:46:45.531Z,998.87
2018-03-30T11:47:45.538Z,998.89
2018-03-30T11:48:45.577Z,998.88
2018-03-30T11:49:45.595Z,998.86
2018-03-30T11:50:45.618Z,998.87
2018-03-30T11:51:45.645Z,998.81
2018-03-30T11:52:45.674Z,998.80
2018-03-30T11:53:45.698Z,998.79
2018-03-30T11:54:45.728Z,998.77
2018-03-30T11:55:45.779Z,998.78
2018-03-30T11:56:45.780Z,998.76
2018-03-30T11:57:45.809Z,998.78
2018-03-30T11:58:45.864Z,998.82
2018-03-30T11:59:45.861Z,998.82
2018-03-30T12:00:45.888Z,998.83
2018-03-30T12:01:45.914Z,998.80
2018-03-30T12:02:45.944Z,998.80
2018-03-30T12:03:45.969Z,998.81
2018-03-30T12:04:45.995Z,998.81
2018-03-30T12:05:46.022Z,998.74
2018-03-30T12:06:46.049Z,998.78
2018-03-30T12:07:46.079Z,998.75
2018-03-30T12:08:46.103Z,998.73
2018-03-30T12:09:46.132Z,998.74
2018-03-30T12:10:46.157Z,998.75
2018-03-30T12:11:46.185Z,998.75
2018-03-30T12:12:46.211Z,998.79
2018-03-30T12:13:46.238Z,998.73
2018-03-30T12:14:46.265Z,998.71
2018-03-30T12:15:46.294Z,998.75
2018-03-30T12:16:46.319Z,998.75
2018-03-30T12:17:46.344Z,998.75
2018-03-30T12:18:46.377Z,998.73
2018-03-30T12:19:46.413Z,998.74
2018-03-30T12:20:46.427Z,998.72
2018-03-30T12:21:46.453Z,998.70
2018-03-30T12:22:46.483Z,998.69
2018-03-30T12:23:46.525Z,998.70
2018-03-30T12:24:46.534Z,998.72
2018-03-30T12:25:46.561Z,998.69
2018-03-30T12:26:46.649Z,998.73
2018-03-30T12:27:46.615Z,998.69
2018-03-30T12:28:46.646Z,998.65